Time;durP1;ratioP1;P1;durP2;ratioP2;P2;SDS_P1;SDS_P2;PMS_P1;PMS_P2;Temp;Humidity;BMP_temperature;BMP_pressure;BME280_temperature;BME280_humidity;BME280_pressure;Samples;Min_cycle;Max_cycle;Signal;HPM_P1;HPM_P2
2021/07/12 00:00:32;;;;;;;13.32;12.10;;;24.90;99.90;;;;;;5105087;28;20038;-71
2021/07/12 00:03:01;;;;;;;12.60;11.40;;;24.90;99.90;;;;;;5107693;28;20115;-73
2021/07/12 00:05:27;;;;;;;12.50;11.38;;;24.90;99.90;;;;;;5103080;28;20028;-72
2021/07/12 00:07:54;;;;;;;15.40;11.73;;;24.90;99.90;;;;;;5088951;28;20434;-72
2021/07/12 00:10:22;;;;;;;12.15;10.93;;;24.90;99.90;;;;;;5088387;28;20438;-73
2021/07/12 00:12:50;;;;;;;12.18;11.18;;;25.00;99.90;;;;;;5104882;28;20084;-72
2021/07/12 00:15:17;;;;;;;11.82;10.55;;;24.90;99.90;;;;;;5089337;28;20048;-72
2021/07/12 00:17:44;;;;;;;12.25;10.90;;;25.00;99.90;;;;;;5094806;28;20035;-71
2021/07/12 00:20:11;;;;;;;12.38;11.25;;;25.00;99.90;;;;;;5109806;28;20088;-72
2021/07/12 00:22:38;;;;;;;13.02;11.27;;;24.80;99.90;;;;;;5114043;27;20016;-71
2021/07/12 00:25:05;;;;;;;12.00;10.80;;;24.90;99.90;;;;;;5114014;28;20103;-71
2021/07/12 00:27:31;;;;;;;12.90;11.80;;;24.80;99.90;;;;;;5112043;28;20058;-72
2021/07/12 00:29:57;;;;;;;11.52;10.38;;;24.80;99.90;;;;;;5107052;28;20481;-72
2021/07/12 00:32:23;;;;;;;14.45;12.25;;;24.90;99.90;;;;;;5102538;28;20020;-73
2021/07/12 00:34:49;;;;;;;12.18;10.90;;;24.90;99.90;;;;;;5092013;28;20047;-72
2021/07/12 00:37:15;;;;;;;12.63;11.38;;;24.90;99.90;;;;;;5095072;28;20030;-72
2021/07/12 00:39:40;;;;;;;13.48;12.27;;;24.80;99.90;;;;;;5105301;28;20055;-72
2021/07/12 00:42:07;;;;;;;12.68;11.02;;;24.80;99.90;;;;;;5113727;28;20019;-73
2021/07/12 00:44:32;;;;;;;14.05;12.70;;;24.70;99.90;;;;;;5108755;28;20574;-72
2021/07/12 00:46:58;;;;;;;12.77;11.38;;;24.60;99.90;;;;;;5096839;28;20024;-73
2021/07/12 00:49:24;;;;;;;12.43;11.30;;;24.60;99.90;;;;;;5112475;28;20049;-72
2021/07/12 00:51:50;;;;;;;14.20;12.73;;;24.60;99.90;;;;;;5107574;28;20073;-72
2021/07/12 00:54:17;;;;;;;13.05;11.95;;;24.60;99.90;;;;;;5112941;28;20024;-72
2021/07/12 00:56:43;;;;;;;13.30;12.23;;;24.60;99.90;;;;;;5107090;28;20024;-72
2021/07/12 00:59:09;;;;;;;14.18;11.75;;;24.40;99.90;;;;;;5091346;28;20031;-72
2021/07/12 01:01:35;;;;;;;20.48;12.38;;;24.50;99.90;;;;;;5091529;28;20035;-72
2021/07/12 01:04:01;;;;;;;16.08;10.68;;;24.50;99.90;;;;;;5091445;28;20028;-72
2021/07/12 01:06:27;;;;;;;16.45;11.80;;;24.50;99.90;;;;;;5097943;28;20496;-71
2021/07/12 01:08:52;;;;;;;13.85;11.98;;;24.50;99.90;;;;;;5095896;28;20032;-73
2021/07/12 01:11:28;;;;;;;15.45;11.10;;;24.50;99.90;;;;;;5091418;28;20028;-73
2021/07/12 01:14:12;;;;;;;16.13;12.95;;;24.50;99.90;;;;;;5091213;28;20499;-71
2021/07/12 01:17:07;;;;;;;13.18;11.88;;;24.40;99.90;;;;;;5106401;28;20027;-71
2021/07/12 01:22:35;;;;;;;13.00;11.90;;;24.40;99.90;;;;;;5100839;28;20155;-73
2021/07/12 01:25:35;;;;;;;13.68;12.48;;;24.40;99.90;;;;;;5110889;28;20146;-72
2021/07/12 01:28:45;;;;;;;14.85;13.40;;;24.40;99.90;;;;;;5095120;28;20063;-72
2021/07/12 01:31:17;;;;;;;14.30;12.80;;;24.30;99.90;;;;;;5091876;28;20481;-72
2021/07/12 01:34:09;;;;;;;13.98;12.75;;;24.30;99.90;;;;;;5091776;28;20027;-72
2021/07/12 01:36:43;;;;;;;14.07;12.85;;;24.20;99.90;;;;;;5100607;28;20039;-72
2021/07/12 01:39:18;;;;;;;14.40;12.65;;;24.20;99.90;;;;;;5092163;28;20402;-72
2021/07/12 01:42:06;;;;;;;16.27;12.32;;;24.10;99.90;;;;;;5099171;28;20097;-72
2021/07/12 01:44:58;;;;;;;14.20;12.75;;;24.20;99.90;;;;;;5110951;28;20497;-73
2021/07/12 01:47:47;;;;;;;15.85;14.32;;;24.20;99.90;;;;;;5105161;28;20038;-72
2021/07/12 01:50:40;;;;;;;13.30;12.07;;;24.20;99.90;;;;;;5112161;28;20032;-72
2021/07/12 01:53:18;;;;;;;14.82;12.43;;;24.20;99.90;;;;;;5111679;28;20202;-71
2021/07/12 01:55:49;;;;;;;13.38;12.18;;;24.30;99.90;;;;;;5112315;28;20086;-71
2021/07/12 01:58:31;;;;;;;14.32;12.93;;;24.20;99.90;;;;;;5110976;28;20054;-72
2021/07/12 02:00:59;;;;;;;13.95;12.63;;;24.20;99.90;;;;;;5091813;28;20025;-72
2021/07/12 02:03:28;;;;;;;14.50;13.00;;;24.20;99.90;;;;;;5092033;28;20459;-71
2021/07/12 02:05:59;;;;;;;14.27;13.07;;;24.20;99.90;;;;;;5090703;28;20054;-72
2021/07/12 02:08:26;;;;;;;18.15;12.80;;;24.10;99.90;;;;;;5090607;28;20064;-72
2021/07/12 02:10:54;;;;;;;15.00;13.52;;;24.10;99.90;;;;;;5092399;28;20306;-72
2021/07/12 02:13:20;;;;;;;14.27;12.98;;;24.00;99.90;;;;;;5103051;28;20011;-72
2021/07/12 02:15:49;;;;;;;16.77;13.45;;;24.10;99.90;;;;;;5107253;28;20502;-71
2021/07/12 02:18:18;;;;;;;14.45;13.15;;;24.10;99.90;;;;;;5091689;28;20497;-72
2021/07/12 02:20:46;;;;;;;15.02;13.73;;;24.00;99.90;;;;;;5091880;28;20031;-71
2021/07/12 02:23:14;;;;;;;15.05;13.52;;;24.00;99.90;;;;;;5093567;28;20078;-72
2021/07/12 02:25:41;;;;;;;15.23;13.93;;;23.90;99.90;;;;;;5093504;28;20024;-71
2021/07/12 02:28:12;;;;;;;17.40;13.10;;;23.90;99.90;;;;;;5112122;28;20057;-72
2021/07/12 02:30:43;;;;;;;16.15;12.50;;;23.90;99.90;;;;;;5111575;28;20027;-73
2021/07/12 02:33:10;;;;;;;14.13;12.90;;;23.90;99.90;;;;;;5099522;28;20036;-72
2021/07/12 02:35:37;;;;;;;15.63;13.82;;;23.90;99.90;;;;;;5092025;28;20123;-72
2021/07/12 02:38:04;;;;;;;17.52;13.43;;;23.80;99.90;;;;;;5091129;28;20020;-72
2021/07/12 02:40:30;;;;;;;16.00;14.55;;;23.90;99.90;;;;;;5091082;28;20073;-74
2021/07/12 02:42:58;;;;;;;17.55;14.77;;;23.90;99.90;;;;;;5091249;28;20028;-71
2021/07/12 02:45:26;;;;;;;15.32;13.88;;;23.90;99.90;;;;;;5107736;28;20391;-73
2021/07/12 02:47:52;;;;;;;15.10;13.73;;;23.90;99.90;;;;;;5109661;28;20035;-71
2021/07/12 02:50:20;;;;;;;15.95;14.45;;;23.90;99.90;;;;;;5111688;28;20128;-72
2021/07/12 02:52:57;;;;;;;15.98;14.43;;;23.80;99.90;;;;;;5102055;28;20028;-71
2021/07/12 02:55:22;;;;;;;16.42;15.00;;;23.80;99.90;;;;;;5093037;28;20043;-72
2021/07/12 02:57:48;;;;;;;15.73;14.05;;;23.80;99.90;;;;;;5091965;28;20039;-71
2021/07/12 03:00:14;;;;;;;15.93;14.52;;;23.60;99.90;;;;;;5090642;28;20030;-71
2021/07/12 03:02:41;;;;;;;16.02;14.57;;;23.70;99.90;;;;;;5089343;28;20119;-71
2021/07/12 03:05:09;;;;;;;17.17;15.30;;;23.60;99.90;;;;;;5090520;28;20024;-72
2021/07/12 03:07:49;;;;;;;15.02;13.57;;;23.70;99.90;;;;;;5105843;28;20135;-72
2021/07/12 03:10:17;;;;;;;17.30;15.68;;;23.70;99.90;;;;;;5089289;28;20685;-72
2021/07/12 03:12:58;;;;;;;16.15;14.65;;;23.70;99.90;;;;;;5089476;28;20031;-72
2021/07/12 03:15:50;;;;;;;17.23;15.52;;;23.60;99.90;;;;;;5095641;28;20080;-73
2021/07/12 03:18:40;;;;;;;16.98;15.25;;;23.70;99.90;;;;;;5108808;28;20044;-72
2021/07/12 03:21:06;;;;;;;16.30;14.80;;;23.60;99.90;;;;;;5090364;28;20028;-73
2021/07/12 03:23:44;;;;;;;15.00;13.63;;;23.70;99.90;;;;;;5092880;28;20023;-71
2021/07/12 03:26:20;;;;;;;15.98;14.65;;;23.60;99.90;;;;;;5108936;28;20024;-71
2021/07/12 03:28:50;;;;;;;15.70;14.38;;;23.60;99.90;;;;;;5110946;28;20026;-73
2021/07/12 03:31:21;;;;;;;20.33;15.98;;;23.60;99.90;;;;;;5109511;28;20034;-73
2021/07/12 03:33:50;;;;;;;16.67;15.27;;;23.60;99.90;;;;;;5106498;28;20110;-72
2021/07/12 03:36:17;;;;;;;17.73;16.30;;;23.60;99.90;;;;;;5100621;28;20024;-73
2021/07/12 03:38:44;;;;;;;15.55;14.35;;;23.60;99.90;;;;;;5095883;28;20474;-72
2021/07/12 03:41:10;;;;;;;17.92;16.30;;;23.60;99.90;;;;;;5088955;28;20060;-72
2021/07/12 03:43:40;;;;;;;16.63;14.95;;;23.50;99.90;;;;;;5102760;28;20055;-72
2021/07/12 03:46:05;;;;;;;17.17;15.27;;;23.50;99.90;;;;;;5108825;28;20028;-72
2021/07/12 03:48:43;;;;;;;17.23;15.27;;;23.60;99.90;;;;;;5109374;28;20020;-72
2021/07/12 03:51:18;;;;;;;15.68;14.27;;;23.60;99.90;;;;;;5097188;28;20031;-72
2021/07/12 03:53:44;;;;;;;16.58;15.10;;;23.60;99.90;;;;;;5093391;28;20027;-72
2021/07/12 03:56:10;;;;;;;19.27;16.50;;;23.60;99.90;;;;;;5114456;28;20103;-72
2021/07/12 03:58:36;;;;;;;16.67;15.10;;;23.60;99.90;;;;;;5113211;28;20384;-72
2021/07/12 04:01:02;;;;;;;17.30;15.65;;;23.70;99.90;;;;;;5109600;28;20036;-73
2021/07/12 04:03:28;;;;;;;16.45;14.85;;;23.70;99.90;;;;;;5102648;28;20503;-73
2021/07/12 04:05:54;;;;;;;15.80;14.50;;;23.70;99.90;;;;;;5111098;28;20027;-73
2021/07/12 04:08:20;;;;;;;18.33;16.73;;;23.70;99.90;;;;;;5105973;28;20074;-72
2021/07/12 04:10:46;;;;;;;17.00;15.55;;;23.60;99.90;;;;;;5107044;28;20027;-72
2021/07/12 04:13:13;;;;;;;15.80;14.40;;;23.60;99.90;;;;;;5112683;28;20516;-73
2021/07/12 04:15:43;;;;;;;17.52;16.10;;;23.70;99.90;;;;;;5114371;27;20030;-72
2021/07/12 04:18:10;;;;;;;16.77;15.18;;;23.60;99.90;;;;;;5109991;28;20104;-72
2021/07/12 04:20:37;;;;;;;18.70;16.90;;;23.60;99.90;;;;;;5092343;28;20039;-72
2021/07/12 04:23:04;;;;;;;16.20;14.63;;;23.60;99.90;;;;;;5093818;28;20028;-72
2021/07/12 04:25:30;;;;;;;15.90;14.65;;;23.70;99.90;;;;;;5092271;28;20085;-72
2021/07/12 04:27:57;;;;;;;16.58;15.07;;;23.70;99.90;;;;;;5092124;28;20024;-72
2021/07/12 04:30:24;;;;;;;16.75;15.27;;;23.70;99.90;;;;;;5092084;28;20393;-72
2021/07/12 04:32:52;;;;;;;15.65;14.18;;;23.60;99.90;;;;;;5095838;28;20516;-73
2021/07/12 04:35:18;;;;;;;16.95;15.50;;;23.70;99.90;;;;;;5112310;28;20035;-72
2021/07/12 04:37:44;;;;;;;17.67;15.98;;;23.70;99.90;;;;;;5112725;28;20024;-72
2021/07/12 04:40:10;;;;;;;19.33;15.52;;;23.80;99.90;;;;;;5100014;28;20026;-72
2021/07/12 04:42:36;;;;;;;16.27;14.65;;;23.80;99.90;;;;;;5098505;27;20056;-73
2021/07/12 04:45:04;;;;;;;17.63;15.68;;;23.90;99.90;;;;;;5093408;28;20063;-73
2021/07/12 04:47:33;;;;;;;18.50;16.52;;;23.90;99.90;;;;;;5091793;28;20031;-72
2021/07/12 04:49:59;;;;;;;19.30;14.70;;;23.90;99.90;;;;;;5107786;27;20508;-71
2021/07/12 04:52:36;;;;;;;23.88;15.20;;;23.90;99.90;;;;;;5108513;28;20097;-74
2021/07/12 04:55:06;;;;;;;17.98;16.05;;;24.00;99.90;;;;;;5101315;28;20020;-72
2021/07/12 04:57:33;;;;;;;17.17;15.55;;;24.00;99.90;;;;;;5109755;28;20038;-72
2021/07/12 05:00:01;;;;;;;17.25;15.55;;;24.00;99.90;;;;;;5114231;28;20031;-73
2021/07/12 05:02:27;;;;;;;16.38;14.98;;;24.00;99.90;;;;;;5108659;27;20027;-72
2021/07/12 05:04:52;;;;;;;17.77;15.95;;;23.90;99.90;;;;;;5111696;28;20032;-73
2021/07/12 05:07:18;;;;;;;18.52;16.08;;;23.90;99.90;;;;;;5111534;28;20028;-73
2021/07/12 05:09:44;;;;;;;15.75;14.10;;;24.10;99.90;;;;;;5112297;28;20028;-74
2021/07/12 05:12:34;;;;;;;17.15;15.60;;;24.20;99.90;;;;;;5112259;28;20020;-73
2021/07/12 05:15:03;;;;;;;16.35;14.85;;;24.20;99.90;;;;;;5112170;28;20019;-73
2021/07/12 05:17:29;;;;;;;18.65;15.45;;;24.30;99.90;;;;;;5111270;28;20026;-74
2021/07/12 05:19:55;;;;;;;18.70;16.90;;;24.40;99.90;;;;;;5113089;28;20027;-73
2021/07/12 05:22:25;;;;;;;17.02;15.30;;;24.50;99.90;;;;;;5112720;28;20020;-72
2021/07/12 05:24:51;;;;;;;16.65;15.18;;;24.40;99.90;;;;;;5112483;27;20093;-73
2021/07/12 05:27:17;;;;;;;18.77;15.50;;;24.50;99.90;;;;;;5099427;28;20028;-72
2021/07/12 05:29:43;;;;;;;17.23;15.65;;;24.60;99.90;;;;;;5092032;28;20059;-73
2021/07/12 05:32:08;;;;;;;17.33;14.65;;;24.70;99.90;;;;;;5090875;28;20382;-74
2021/07/12 05:34:34;;;;;;;14.95;13.63;;;24.70;99.90;;;;;;5107764;28;20036;-74
2021/07/12 05:37:00;;;;;;;16.85;15.40;;;24.80;99.90;;;;;;5104956;28;20039;-67
2021/07/12 05:39:25;;;;;;;16.92;15.43;;;24.80;99.90;;;;;;5110795;28;20032;-67
2021/07/12 05:41:53;;;;;;;15.52;13.95;;;24.90;99.90;;;;;;5111664;28;20027;-67
2021/07/12 05:44:19;;;;;;;17.73;15.75;;;24.90;99.90;;;;;;5112750;28;20522;-68
2021/07/12 05:46:45;;;;;;;16.55;14.68;;;25.00;99.90;;;;;;5112754;28;20036;-68
2021/07/12 05:49:11;;;;;;;20.15;14.55;;;25.10;99.90;;;;;;5113208;28;20024;-67
2021/07/12 05:51:37;;;;;;;16.13;14.63;;;25.10;99.90;;;;;;5112563;28;20049;-68
2021/07/12 05:54:03;;;;;;;18.75;16.60;;;25.20;99.90;;;;;;5110156;28;20023;-67
2021/07/12 05:56:31;;;;;;;19.25;17.50;;;25.30;99.90;;;;;;5108620;28;20031;-67
2021/07/12 05:58:59;;;;;;;17.88;14.35;;;25.40;99.90;;;;;;5111865;28;20089;-67
2021/07/12 06:01:24;;;;;;;16.25;14.65;;;25.50;99.90;;;;;;5111897;28;20493;-67
2021/07/12 06:03:50;;;;;;;16.17;14.60;;;25.60;99.90;;;;;;5102177;28;20020;-67
2021/07/12 06:06:16;;;;;;;17.52;15.13;;;25.60;99.90;;;;;;5111903;28;20027;-67
2021/07/12 06:08:41;;;;;;;18.20;16.52;;;25.80;99.90;;;;;;5110221;28;20110;-67
2021/07/12 06:11:09;;;;;;;16.13;14.63;;;25.80;99.90;;;;;;5106740;28;20024;-67
2021/07/12 06:13:35;;;;;;;15.35;14.00;;;25.80;99.90;;;;;;5110058;28;20033;-67
2021/07/12 06:16:02;;;;;;;20.48;14.25;;;26.00;99.90;;;;;;5110440;28;20051;-68
2021/07/12 06:18:27;;;;;;;15.48;13.98;;;25.90;99.90;;;;;;5110385;28;20027;-66
2021/07/12 06:20:53;;;;;;;14.82;13.38;;;25.90;99.90;;;;;;5110444;28;20031;-67
2021/07/12 06:23:19;;;;;;;16.55;15.05;;;25.90;99.90;;;;;;5110364;28;20027;-68
2021/07/12 06:25:47;;;;;;;18.25;16.00;;;26.00;99.90;;;;;;5112486;28;20066;-66
2021/07/12 06:28:13;;;;;;;15.80;14.32;;;26.10;99.90;;;;;;5109924;28;20027;-68
2021/07/12 06:30:41;;;;;;;18.70;15.95;;;26.20;99.90;;;;;;5110263;28;20036;-67
2021/07/12 06:33:07;;;;;;;16.95;15.45;;;26.20;99.90;;;;;;5110219;28;20153;-67
2021/07/12 06:35:33;;;;;;;16.80;13.77;;;26.30;99.90;;;;;;5104828;28;20027;-66
2021/07/12 06:37:59;;;;;;;15.63;14.30;;;26.40;99.90;;;;;;5105560;28;20023;-67
2021/07/12 06:40:26;;;;;;;15.63;14.15;;;26.50;99.90;;;;;;5110106;28;20123;-68
2021/07/12 06:42:54;;;;;;;14.05;12.63;;;26.50;99.90;;;;;;5108487;28;20042;-68
2021/07/12 06:45:20;;;;;;;21.80;15.38;;;26.60;99.90;;;;;;5109840;28;20016;-68
2021/07/12 06:47:46;;;;;;;14.48;12.85;;;26.80;99.90;;;;;;5107601;28;20107;-68
2021/07/12 06:50:13;;;;;;;21.30;15.50;;;26.80;99.90;;;;;;5105648;28;20072;-67
2021/07/12 06:52:38;;;;;;;16.90;15.20;;;26.90;99.90;;;;;;5109379;28;20024;-67
2021/07/12 06:55:05;;;;;;;16.25;14.80;;;26.90;99.90;;;;;;5109960;28;20462;-68
2021/07/12 06:57:30;;;;;;;14.50;12.73;;;26.90;99.90;;;;;;5110796;28;20027;-67
2021/07/12 06:59:56;;;;;;;16.95;12.35;;;27.00;99.90;;;;;;5109806;28;20068;-66
2021/07/12 07:02:22;;;;;;;14.27;12.98;;;27.10;99.90;;;;;;5110956;28;20039;-69
2021/07/12 07:04:48;;;;;;;14.02;12.05;;;27.10;99.90;;;;;;5098924;28;20020;-69
2021/07/12 07:07:14;;;;;;;14.85;13.55;;;27.20;99.90;;;;;;5107269;28;20024;-67
2021/07/12 07:09:39;;;;;;;14.98;13.18;;;27.20;99.90;;;;;;5103557;28;20023;-67
2021/07/12 07:12:05;;;;;;;14.80;13.20;;;27.20;99.90;;;;;;5108384;28;20028;-69
2021/07/12 07:14:31;;;;;;;13.20;11.48;;;27.20;99.90;;;;;;5108411;28;20392;-71
2021/07/12 07:16:57;;;;;;;12.63;11.38;;;27.20;99.90;;;;;;5110907;28;20032;-69
2021/07/12 07:19:22;;;;;;;13.43;12.13;;;27.20;99.90;;;;;;5106480;28;20622;-68
2021/07/12 07:21:52;;;;;;;17.17;13.18;;;27.20;99.90;;;;;;5108762;28;20053;-68
2021/07/12 07:24:19;;;;;;;13.00;10.98;;;27.30;99.90;;;;;;5109097;28;20065;-69
2021/07/12 07:26:48;;;;;;;12.80;11.55;;;27.40;99.90;;;;;;5102554;28;20035;-69
2021/07/12 07:29:15;;;;;;;11.45;10.55;;;27.50;99.90;;;;;;5105449;28;20044;-68
2021/07/12 07:31:42;;;;;;;14.80;11.52;;;27.50;99.90;;;;;;5111651;28;20053;-68
2021/07/12 07:34:10;;;;;;;13.88;12.50;;;27.40;99.90;;;;;;5108844;28;20031;-68
2021/07/12 07:36:38;;;;;;;14.90;13.40;;;27.60;99.90;;;;;;5098945;28;20028;-69
2021/07/12 07:39:05;;;;;;;11.63;10.55;;;27.70;99.90;;;;;;5105476;28;20035;-68
2021/07/12 07:41:31;;;;;;;11.82;10.73;;;27.90;99.90;;;;;;5106682;28;20024;-67
2021/07/12 07:43:57;;;;;;;12.98;11.88;;;27.80;99.90;;;;;;5109977;28;20031;-69
2021/07/12 07:46:23;;;;;;;14.25;12.85;;;27.70;99.90;;;;;;5101412;28;20055;-69
2021/07/12 07:48:48;;;;;;;12.45;11.35;;;27.80;99.90;;;;;;5105168;28;20512;-67
2021/07/12 07:51:14;;;;;;;14.00;11.70;;;28.00;99.90;;;;;;5110615;28;20532;-66
2021/07/12 07:53:40;;;;;;;15.48;14.18;;;28.00;99.90;;;;;;5105614;28;20039;-67
2021/07/12 07:56:05;;;;;;;12.57;10.93;;;28.10;99.90;;;;;;5100828;28;20020;-67
2021/07/12 07:58:33;;;;;;;13.82;10.73;;;28.10;99.90;;;;;;5102524;28;20023;-68
2021/07/12 08:01:02;;;;;;;13.52;11.88;;;28.00;99.90;;;;;;5109240;28;20024;-68
2021/07/12 08:03:27;;;;;;;14.30;12.27;;;28.20;99.90;;;;;;5104427;28;20126;-66
2021/07/12 08:05:53;;;;;;;18.20;13.25;;;28.10;99.90;;;;;;5109360;28;20106;-68
2021/07/12 08:08:21;;;;;;;14.18;12.68;;;28.20;99.90;;;;;;5104385;28;20030;-67
2021/07/12 08:10:47;;;;;;;13.60;11.48;;;28.40;99.90;;;;;;5107433;28;20038;-67
2021/07/12 08:13:13;;;;;;;13.93;12.63;;;28.50;99.90;;;;;;5108790;28;20385;-69
2021/07/12 08:15:39;;;;;;;12.18;10.98;;;28.40;99.90;;;;;;5104577;28;20031;-67
2021/07/12 08:18:06;;;;;;;12.27;10.90;;;28.50;99.90;;;;;;5107107;28;20028;-68
2021/07/12 08:20:32;;;;;;;12.00;10.50;;;28.60;99.90;;;;;;5102288;28;20144;-68
2021/07/12 08:23:00;;;;;;;10.18;8.75;;;28.70;99.90;;;;;;5108082;28;20088;-67
2021/07/12 08:25:25;;;;;;;9.73;8.55;;;28.80;99.90;;;;;;5104850;28;20042;-67
2021/07/12 08:27:52;;;;;;;13.35;9.88;;;29.10;99.90;;;;;;5107068;28;20036;-67
2021/07/12 08:30:18;;;;;;;12.77;8.75;;;29.20;99.90;;;;;;5107178;28;20019;-67
2021/07/12 08:32:45;;;;;;;14.38;9.15;;;29.20;99.90;;;;;;5123079;28;20020;-67
2021/07/12 08:35:12;;;;;;;16.73;9.18;;;29.40;99.90;;;;;;5101702;28;20506;-66
2021/07/12 08:37:39;;;;;;;14.98;7.75;;;29.30;99.90;;;;;;5107553;28;20059;-65
2021/07/12 08:40:07;;;;;;;9.93;8.43;;;29.40;99.90;;;;;;5108540;28;20028;-69
2021/07/12 08:42:35;;;;;;;13.13;8.32;;;29.40;99.90;;;;;;5104391;28;20031;-64
2021/07/12 08:45:00;;;;;;;10.90;9.93;;;29.50;99.90;;;;;;5105816;27;20116;-67
2021/07/12 08:47:26;;;;;;;12.52;10.23;;;29.50;99.90;;;;;;5097094;28;20401;-67
2021/07/12 08:49:52;;;;;;;10.65;9.65;;;29.60;99.90;;;;;;5081382;28;20121;-64
2021/07/12 08:52:18;;;;;;;11.38;8.88;;;29.60;99.90;;;;;;5110180;28;20053;-66
2021/07/12 08:54:46;;;;;;;11.40;9.07;;;29.60;99.90;;;;;;5110344;28;20028;-66
2021/07/12 08:57:12;;;;;;;11.20;7.53;;;29.80;99.90;;;;;;5110031;27;20032;-66
2021/07/12 08:59:40;;;;;;;8.95;8.02;;;29.90;99.90;;;;;;5107164;28;20036;-66
2021/07/12 09:02:13;;;;;;;9.05;8.10;;;30.00;99.90;;;;;;5109669;28;20110;-67
2021/07/12 09:04:42;;;;;;;13.65;7.65;;;30.10;99.90;;;;;;5107123;28;20036;-65
2021/07/12 09:07:10;;;;;;;10.05;7.35;;;30.00;99.90;;;;;;5111756;28;20373;-67
2021/07/12 09:09:36;;;;;;;12.73;7.55;;;30.00;99.90;;;;;;5106159;28;20118;-67
2021/07/12 09:12:22;;;;;;;19.40;7.32;;;29.90;99.90;;;;;;5111103;28;20446;-68
2021/07/12 09:15:06;;;;;;;7.20;6.60;;;29.90;99.90;;;;;;5107843;28;20530;-68
2021/07/12 09:17:43;;;;;;;7.25;6.55;;;29.80;99.90;;;;;;5110391;28;20024;-68
2021/07/12 09:20:11;;;;;;;10.10;6.50;;;29.60;99.90;;;;;;5109858;28;20038;-66
2021/07/12 09:22:40;;;;;;;13.00;8.45;;;29.70;99.90;;;;;;5103923;28;20485;-68
2021/07/12 09:25:08;;;;;;;22.00;9.80;;;29.70;99.90;;;;;;5107010;28;20060;-68
2021/07/12 09:27:37;;;;;;;13.60;10.70;;;29.50;99.90;;;;;;5110112;28;20024;-68
2021/07/12 09:30:09;;;;;;;9.52;7.28;;;29.30;99.90;;;;;;5109744;28;20099;-68
2021/07/12 09:32:39;;;;;;;20.35;8.73;;;29.20;99.90;;;;;;5091599;28;20081;-67
2021/07/12 09:35:19;;;;;;;24.90;11.50;;;29.30;99.90;;;;;;5110461;28;20131;-67
2021/07/12 09:37:48;;;;;;;13.32;8.60;;;29.20;99.90;;;;;;5099494;28;20378;-68
2021/07/12 09:40:18;;;;;;;9.88;9.07;;;29.20;99.90;;;;;;5107057;28;20015;-69
2021/07/12 09:42:49;;;;;;;8.95;8.05;;;29.40;99.90;;;;;;5108208;28;20077;-67
2021/07/12 09:45:19;;;;;;;7.60;6.88;;;29.50;99.90;;;;;;5101347;28;20031;-67
2021/07/12 09:47:46;;;;;;;12.13;7.40;;;29.80;99.90;;;;;;5087075;28;20039;-69
2021/07/12 09:50:22;;;;;;;9.68;7.57;;;29.80;99.90;;;;;;5107973;28;20028;-68
2021/07/12 09:52:58;;;;;;;17.35;8.50;;;29.80;99.90;;;;;;5107012;28;20038;-67
2021/07/12 09:55:24;;;;;;;15.38;8.93;;;29.80;99.90;;;;;;5110761;28;20059;-68
2021/07/12 09:58:12;;;;;;;10.10;7.35;;;29.80;99.90;;;;;;5105489;28;20130;-67
2021/07/12 10:00:59;;;;;;;9.02;7.50;;;29.70;99.90;;;;;;5106921;28;20031;-67
2021/07/12 10:03:27;;;;;;;11.65;9.38;;;29.70;99.90;;;;;;5111803;28;20034;-69
2021/07/12 10:05:54;;;;;;;11.52;8.70;;;29.60;99.90;;;;;;5109917;28;20048;-69
2021/07/12 10:08:21;;;;;;;9.43;8.57;;;29.60;99.90;;;;;;5110275;28;20035;-68
2021/07/12 10:10:47;;;;;;;13.57;9.68;;;29.60;99.90;;;;;;5110807;28;20027;-69
2021/07/12 10:13:13;;;;;;;12.77;7.85;;;29.50;99.90;;;;;;5102727;28;20019;-68
2021/07/12 10:15:39;;;;;;;10.57;6.53;;;29.50;99.90;;;;;;5103450;28;20158;-66
2021/07/12 10:18:07;;;;;;;12.93;7.68;;;29.50;99.90;;;;;;5105345;28;20582;-67
2021/07/12 10:20:34;;;;;;;13.40;8.13;;;29.60;99.90;;;;;;5110460;28;20031;-68
2021/07/12 10:23:05;;;;;;;14.40;7.50;;;29.80;99.90;;;;;;5105178;28;20354;-68
2021/07/12 10:25:32;;;;;;;23.83;7.68;;;29.80;99.90;;;;;;5111545;28;20031;-69
2021/07/12 10:28:16;;;;;;;12.45;8.43;;;29.80;99.90;;;;;;5110048;28;20034;-69
2021/07/12 10:30:47;;;;;;;11.63;8.70;;;29.80;99.90;;;;;;5105913;28;20035;-68
2021/07/12 10:33:15;;;;;;;8.52;6.38;;;29.90;99.90;;;;;;5107187;28;20058;-69
2021/07/12 10:35:42;;;;;;;11.10;8.32;;;29.90;99.90;;;;;;5109955;28;20031;-66
2021/07/12 10:38:10;;;;;;;7.45;6.63;;;29.90;99.90;;;;;;5109844;28;20024;-67
2021/07/12 10:40:51;;;;;;;14.13;6.38;;;30.00;99.90;;;;;;5106977;28;20053;-67
2021/07/12 10:43:50;;;;;;;7.23;6.53;;;30.10;99.90;;;;;;5101819;28;20028;-69
2021/07/12 10:46:28;;;;;;;7.80;7.20;;;30.00;99.90;;;;;;5100723;28;20039;-68
2021/07/12 10:49:31;;;;;;;10.95;6.68;;;29.90;99.90;;;;;;5105650;28;20024;-70
2021/07/12 10:51:57;;;;;;;11.70;10.57;;;29.80;99.90;;;;;;5099375;28;20024;-69
2021/07/12 10:54:24;;;;;;;11.27;10.00;;;29.80;99.90;;;;;;5106077;28;20023;-69
2021/07/12 10:56:57;;;;;;;10.30;9.32;;;29.70;99.90;;;;;;5104813;28;20479;-68
2021/07/12 10:59:34;;;;;;;12.07;10.95;;;29.50;99.90;;;;;;5110620;28;20016;-68
2021/07/12 11:02:02;;;;;;;11.95;10.80;;;29.40;99.90;;;;;;5107479;28;20032;-69
2021/07/12 11:04:51;;;;;;;17.50;11.07;;;29.40;99.90;;;;;;5105395;28;20024;-69
2021/07/12 11:07:19;;;;;;;12.75;9.45;;;29.60;99.90;;;;;;5109399;28;20043;-68
2021/07/12 11:09:51;;;;;;;9.98;9.00;;;29.70;99.90;;;;;;5109693;28;20039;-69
2021/07/12 11:12:31;;;;;;;12.10;9.55;;;29.40;99.90;;;;;;5109719;28;20026;-67
2021/07/12 11:15:16;;;;;;;15.57;9.70;;;29.40;99.90;;;;;;5097749;28;20481;-69
2021/07/12 11:17:49;;;;;;;11.85;10.75;;;29.20;99.90;;;;;;5093702;28;20720;-68
2021/07/12 11:20:15;;;;;;;21.33;11.73;;;29.20;99.90;;;;;;5095921;28;20027;-66
2021/07/12 11:22:52;;;;;;;14.35;11.00;;;29.30;99.90;;;;;;5095405;28;20031;-67
2021/07/12 11:25:40;;;;;;;17.73;11.18;;;29.20;99.90;;;;;;5103229;28;20497;-68
2021/07/12 11:28:14;;;;;;;18.05;10.02;;;29.20;99.90;;;;;;5110312;28;20542;-68
2021/07/12 11:30:41;;;;;;;13.30;10.85;;;29.20;99.90;;;;;;5103673;28;20053;-69
2021/07/12 11:33:07;;;;;;;10.38;9.15;;;29.20;99.90;;;;;;5104444;28;20116;-67
2021/07/12 11:35:34;;;;;;;13.80;9.82;;;29.00;99.90;;;;;;5108942;28;20035;-67
2021/07/12 11:38:06;;;;;;;11.38;10.15;;;28.90;99.90;;;;;;5089806;28;20081;-68
2021/07/12 11:40:32;;;;;;;10.60;9.60;;;28.70;99.90;;;;;;5103671;28;20023;-68
2021/07/12 11:42:58;;;;;;;13.35;9.65;;;28.50;99.90;;;;;;5106440;28;20024;-67
2021/07/12 11:45:24;;;;;;;12.75;11.23;;;28.50;99.90;;;;;;5081173;28;20026;-68
2021/07/12 11:47:57;;;;;;;11.45;9.60;;;28.60;99.90;;;;;;5106476;28;20385;-68
2021/07/12 11:50:29;;;;;;;9.70;8.85;;;28.60;99.90;;;;;;5100000;28;20020;-69
2021/07/12 11:52:58;;;;;;;12.52;9.80;;;28.60;99.90;;;;;;5105207;28;20024;-67
2021/07/12 11:55:28;;;;;;;9.32;8.45;;;28.40;99.90;;;;;;5105238;28;20102;-68
2021/07/12 11:57:56;;;;;;;11.65;9.50;;;28.40;99.90;;;;;;5108381;28;20023;-68
2021/07/12 12:00:26;;;;;;;14.00;9.40;;;28.10;99.90;;;;;;5107839;28;20039;-67
2021/07/12 12:02:56;;;;;;;11.00;10.00;;;28.10;99.90;;;;;;5105672;28;20165;-67
2021/07/12 12:05:22;;;;;;;13.63;10.38;;;28.20;99.90;;;;;;5103769;28;20015;-67
2021/07/12 12:07:48;;;;;;;11.80;10.70;;;28.30;99.90;;;;;;5106567;28;20027;-67
2021/07/12 12:10:16;;;;;;;12.93;9.63;;;28.10;99.90;;;;;;5104804;28;20031;-68
2021/07/12 12:12:51;;;;;;;11.57;9.18;;;28.20;99.90;;;;;;5107626;28;20031;-68
2021/07/12 12:15:34;;;;;;;14.88;9.27;;;28.30;99.90;;;;;;5103183;28;20039;-70
2021/07/12 12:18:09;;;;;;;10.73;9.68;;;28.30;99.90;;;;;;5111785;28;20424;-67
2021/07/12 12:20:42;;;;;;;20.35;10.88;;;28.00;99.90;;;;;;5107702;28;20142;-67
2021/07/12 12:23:23;;;;;;;10.40;9.07;;;27.90;99.90;;;;;;5102790;28;20069;-66
2021/07/12 12:25:52;;;;;;;8.77;7.93;;;28.10;99.90;;;;;;5114669;28;20030;-69
2021/07/12 12:28:23;;;;;;;10.85;8.75;;;28.40;99.90;;;;;;5111942;28;20370;-69
2021/07/12 12:30:50;;;;;;;9.03;8.10;;;28.40;99.90;;;;;;5113731;28;20023;-70
2021/07/12 12:33:16;;;;;;;9.27;8.32;;;28.50;99.90;;;;;;5108070;28;20288;-68
2021/07/12 12:35:43;;;;;;;9.35;8.45;;;28.40;99.90;;;;;;5113071;28;20122;-67
2021/07/12 12:38:28;;;;;;;12.73;8.27;;;28.60;99.90;;;;;;5109721;28;20020;-70
2021/07/12 12:41:07;;;;;;;14.60;7.85;;;28.80;99.90;;;;;;5098681;28;20026;-68
2021/07/12 12:43:36;;;;;;;9.40;8.10;;;28.70;99.90;;;;;;5105764;27;20051;-69
2021/07/12 12:46:09;;;;;;;9.55;8.65;;;28.60;99.90;;;;;;5110463;28;20193;-66